Time;durP1;ratioP1;P1;durP2;ratioP2;P2;SDS_P1;SDS_P2;PMS_P1;PMS_P2;Temp;Humidity;BMP_temperature;BMP_pressure;BME280_temperature;BME280_humidity;BME280_pressure;Samples;Min_cycle;Max_cycle;Signal;HPM_P1;HPM_P2
2022/02/01 00:01:01;;;;;;;2.00;0.80;;;;;;;19.23;24.82;94368.16;4950062;28;20055;-68
2022/02/01 00:03:30;;;;;;;1.80;0.90;;;;;;;19.26;24.96;94372.13;4941768;28;20049;-67
2022/02/01 00:06:28;;;;;;;1.60;0.80;;;;;;;19.26;24.56;94356.31;4907874;29;20038;-67
2022/02/01 00:12:03;;;;;;;1.30;0.93;;;;;;;19.30;24.94;94363.44;4879261;29;20033;-67
2022/02/01 00:15:14;;;;;;;1.50;0.80;;;;;;;19.30;24.76;94373.19;4883364;29;20068;-67
2022/02/01 00:20:38;;;;;;;1.67;0.80;;;;;;;19.29;24.76;94374.25;4838905;29;20053;-67
2022/02/01 00:36:39;;;;;;;2.22;1.30;;;;;;;19.29;24.68;94382.19;4876965;29;20040;-67
2022/02/01 00:39:09;;;;;;;2.00;0.90;;;;;;;19.28;24.92;94386.63;4881701;29;20069;-68
2022/02/01 00:41:52;;;;;;;2.05;0.90;;;;;;;19.25;24.78;94371.34;4876812;29;20079;-67
2022/02/01 00:44:18;;;;;;;1.33;0.85;;;;;;;19.24;25.00;94384.75;4877069;29;20029;-67
2022/02/01 00:46:46;;;;;;;2.30;0.90;;;;;;;19.21;24.91;94375.53;4884452;29;20036;-68
2022/02/01 00:49:11;;;;;;;1.90;1.15;;;;;;;19.19;24.91;94384.72;4907261;29;20039;-68
2022/02/01 00:51:37;;;;;;;1.60;0.98;;;;;;;19.20;24.89;94388.94;4893501;29;20101;-68
2022/02/01 00:54:02;;;;;;;2.38;0.90;;;;;;;19.21;24.70;94387.88;4902751;29;20145;-68
2022/02/01 00:56:28;;;;;;;2.75;1.10;;;;;;;19.18;24.54;94389.19;4921841;29;20099;-68
2022/02/01 00:59:07;;;;;;;1.90;1.10;;;;;;;19.19;25.07;94377.63;4904458;29;20044;-67
2022/02/01 01:01:33;;;;;;;2.60;0.90;;;;;;;19.24;24.82;94390.03;4903620;29;20039;-67
2022/02/01 01:03:58;;;;;;;2.90;1.08;;;;;;;19.20;24.98;94378.41;4903644;29;20036;-67
2022/02/01 01:06:25;;;;;;;2.47;1.00;;;;;;;19.21;24.93;94372.06;4887527;29;20036;-67
2022/02/01 01:08:51;;;;;;;2.28;1.08;;;;;;;19.18;24.72;94370.75;4905070;29;20138;-67
2022/02/01 01:11:16;;;;;;;2.65;1.17;;;;;;;19.20;24.62;94381.03;4896878;29;20038;-67
2022/02/01 01:43:49;;;;;;;2.03;1.15;;;;;;;19.14;24.72;94446.09;4910624;29;20046;-67
2022/02/01 01:54:24;;;;;;;1.90;1.00;;;;;;;19.21;24.57;94464.34;4918877;29;20038;-67
2022/02/01 01:56:53;;;;;;;3.78;1.10;;;;;;;19.20;24.67;94452.22;4903990;29;20039;-68
2022/02/01 01:59:19;;;;;;;3.08;1.00;;;;;;;19.22;24.81;94444.84;4898388;29;20028;-67
2022/02/01 02:01:44;;;;;;;2.05;0.95;;;;;;;19.23;24.37;94449.06;4895157;29;20035;-67
2022/02/01 02:04:09;;;;;;;1.95;0.80;;;;;;;19.27;24.67;94452.81;4903879;29;20028;-68
2022/02/01 02:06:37;;;;;;;2.40;1.00;;;;;;;19.28;24.36;94454.38;4930084;29;20040;-67
2022/02/01 02:09:04;;;;;;;2.45;1.25;;;;;;;19.25;24.52;94447.78;4939259;29;20070;-67
2022/02/01 02:16:43;;;;;;;1.65;0.90;;;;;;;19.25;24.50;94470.72;4926454;29;20115;-67
2022/02/01 02:19:09;;;;;;;2.22;0.90;;;;;;;19.25;24.61;94474.16;4897449;29;20035;-67
2022/02/01 02:21:40;;;;;;;2.63;0.90;;;;;;;19.26;24.69;94478.38;4921331;29;20040;-67
2022/02/01 02:24:06;;;;;;;1.88;0.80;;;;;;;19.26;24.52;94467.03;4915291;29;20028;-67
2022/02/01 02:26:34;;;;;;;1.90;0.90;;;;;;;19.29;24.31;94475.25;4894621;29;20028;-67
2022/02/01 02:29:00;;;;;;;3.78;0.93;;;;;;;19.29;24.49;94483.16;4894478;29;20401;-67
2022/02/01 02:31:27;;;;;;;1.70;0.90;;;;;;;19.29;24.48;94479.72;4899086;29;20461;-67
2022/02/01 02:33:57;;;;;;;2.30;0.90;;;;;;;19.27;24.55;94490.50;4884491;29;20136;-68
2022/02/01 02:36:23;;;;;;;2.73;0.80;;;;;;;19.34;24.47;94501.66;4906668;29;20065;-67
2022/02/01 02:41:34;;;;;;;3.15;1.38;;;;;;;19.30;24.53;94513.72;4920435;29;20031;-67
2022/02/01 02:46:46;;;;;;;2.95;1.20;;;;;;;19.26;24.38;94504.72;4909460;29;20104;-67
2022/02/01 02:49:13;;;;;;;1.92;0.88;;;;;;;19.24;24.39;94503.41;4913064;28;20048;-68
2022/02/01 02:51:39;;;;;;;2.72;1.00;;;;;;;19.26;24.42;94510.00;4894862;29;20087;-67
2022/02/01 02:54:05;;;;;;;3.78;1.15;;;;;;;19.27;24.59;94506.34;4895029;29;20035;-67
2022/02/01 02:56:31;;;;;;;1.60;0.80;;;;;;;19.28;24.58;94507.13;4907220;29;20043;-67
2022/02/01 02:58:58;;;;;;;2.53;1.08;;;;;;;19.28;24.41;94515.03;4904332;29;20143;-68
2022/02/01 03:01:24;;;;;;;3.53;1.00;;;;;;;19.29;24.49;94535.09;4895093;29;20032;-68
2022/02/01 03:03:49;;;;;;;3.25;1.15;;;;;;;19.31;24.34;94527.72;4911520;29;20037;-67
2022/02/01 03:06:15;;;;;;;2.80;1.10;;;;;;;19.30;24.41;94531.41;4894844;29;20032;-67
2022/02/01 03:08:40;;;;;;;3.70;1.05;;;;;;;19.32;24.42;94529.31;4897154;29;20028;-68
2022/02/01 03:11:11;;;;;;;3.67;1.00;;;;;;;19.33;24.38;94536.19;4894122;29;20099;-67
2022/02/01 03:13:39;;;;;;;2.53;1.10;;;;;;;19.31;24.36;94540.91;4895323;29;20036;-67
2022/02/01 03:21:36;;;;;;;3.42;1.30;;;;;;;19.32;24.53;94567.03;4895622;29;20111;-67
2022/02/01 03:24:02;;;;;;;3.15;0.90;;;;;;;19.30;24.44;94573.59;4866266;29;20048;-67
2022/02/01 03:26:40;;;;;;;2.10;1.00;;;;;;;19.32;24.53;94589.94;4880049;29;20099;-68
2022/02/01 03:29:06;;;;;;;2.83;1.20;;;;;;;19.28;24.44;94586.22;4877301;29;20032;-68
2022/02/01 03:31:36;;;;;;;4.22;1.00;;;;;;;19.23;24.46;94588.78;4879875;29;20033;-67
2022/02/01 03:34:04;;;;;;;2.65;1.08;;;;;;;19.27;24.50;94601.25;4895243;29;20032;-67
2022/02/01 03:36:30;;;;;;;1.35;0.90;;;;;;;19.25;24.58;94603.34;4892233;29;20123;-67
2022/02/01 03:38:57;;;;;;;2.38;1.00;;;;;;;19.24;24.42;94593.03;4900854;29;20217;-67
2022/02/01 03:41:23;;;;;;;3.22;1.00;;;;;;;19.25;24.22;94597.28;4902204;29;20063;-67
2022/02/01 03:43:48;;;;;;;2.38;1.05;;;;;;;19.25;24.42;94600.69;4877627;29;20047;-68
2022/02/01 03:46:14;;;;;;;2.03;0.90;;;;;;;19.27;24.51;94595.19;4885951;29;20039;-67
2022/02/01 03:48:39;;;;;;;2.15;0.98;;;;;;;19.27;24.38;94585.44;4889150;29;20048;-67
2022/02/01 03:51:14;;;;;;;1.88;1.00;;;;;;;19.26;24.51;94583.81;4896763;29;20103;-67
2022/02/01 03:53:39;;;;;;;2.42;1.00;;;;;;;19.27;24.45;94585.44;4863616;29;20043;-67
2022/02/01 03:56:05;;;;;;;2.53;0.98;;;;;;;19.31;24.26;94585.75;4888486;29;20040;-67
2022/02/01 03:58:30;;;;;;;1.90;0.90;;;;;;;19.31;24.31;94585.75;4914440;29;20035;-67
2022/02/01 04:00:56;;;;;;;2.00;0.95;;;;;;;19.34;24.39;94585.22;4909183;29;20043;-67
2022/02/01 04:03:21;;;;;;;1.48;0.93;;;;;;;19.32;24.32;94588.13;4900209;29;20024;-67
2022/02/01 04:05:47;;;;;;;1.95;0.95;;;;;;;19.31;24.35;94594.44;4917397;29;20028;-67
2022/02/01 04:08:15;;;;;;;1.55;0.85;;;;;;;19.34;24.41;94601.03;4895513;29;20047;-67
2022/02/01 04:10:44;;;;;;;1.73;0.77;;;;;;;19.32;24.47;94613.69;4898921;29;20115;-67
2022/02/01 04:13:10;;;;;;;1.42;0.90;;;;;;;19.38;24.41;94617.16;4928590;29;20036;-67
2022/02/01 04:15:35;;;;;;;3.42;0.80;;;;;;;19.34;24.39;94612.41;4926042;28;20369;-67
2022/02/01 04:18:01;;;;;;;3.67;1.08;;;;;;;19.33;24.27;94600.25;4896359;29;20040;-67
2022/02/01 04:20:27;;;;;;;1.58;0.90;;;;;;;19.34;24.46;94606.31;4912426;29;20031;-67
2022/02/01 04:22:55;;;;;;;3.10;1.10;;;;;;;19.33;24.42;94607.38;4920693;29;20042;-68
2022/02/01 04:25:20;;;;;;;2.13;1.00;;;;;;;19.32;24.30;94611.88;4918763;29;20130;-67
2022/02/01 04:27:45;;;;;;;2.10;0.93;;;;;;;19.35;24.28;94615.84;4912925;29;20072;-67
2022/02/01 04:30:14;;;;;;;2.63;1.00;;;;;;;19.29;24.49;94599.16;4897483;29;20059;-67
2022/02/01 04:32:40;;;;;;;1.67;0.90;;;;;;;19.30;24.37;94610.50;4917438;29;20046;-67
2022/02/01 04:35:07;;;;;;;1.88;0.90;;;;;;;19.25;24.53;94640.25;4911842;29;20031;-68
2022/02/01 04:37:33;;;;;;;2.15;0.98;;;;;;;19.27;24.47;94643.44;4903525;29;20039;-67
2022/02/01 04:39:58;;;;;;;1.88;1.00;;;;;;;19.30;24.40;94629.75;4897329;29;20028;-67
2022/02/01 04:42:27;;;;;;;2.15;0.93;;;;;;;19.30;24.28;94629.75;4910599;29;20033;-68
2022/02/01 04:44:53;;;;;;;2.47;1.10;;;;;;;19.30;24.42;94631.59;4897078;29;20039;-68
2022/02/01 04:47:18;;;;;;;2.10;1.00;;;;;;;19.30;24.22;94642.94;4906638;29;20033;-67
2022/02/01 04:49:49;;;;;;;2.05;1.00;;;;;;;19.29;24.53;94627.38;4919221;29;20024;-67
2022/02/01 04:52:17;;;;;;;2.88;1.05;;;;;;;19.30;24.35;94634.22;4926519;29;20038;-67
2022/02/01 04:54:42;;;;;;;2.22;1.10;;;;;;;19.32;24.23;94634.78;4904298;29;20199;-68
2022/02/01 04:57:07;;;;;;;2.10;0.98;;;;;;;19.30;24.40;94631.59;4896813;29;20039;-68
2022/02/01 04:59:33;;;;;;;1.83;1.00;;;;;;;19.33;24.38;94631.09;4896538;29;20031;-67
2022/02/01 05:01:58;;;;;;;3.17;1.10;;;;;;;19.32;24.26;94645.31;4887959;29;20047;-67
2022/02/01 05:04:24;;;;;;;2.50;1.00;;;;;;;19.27;24.42;94643.44;4907831;29;20031;-67
2022/02/01 05:06:51;;;;;;;1.88;1.20;;;;;;;19.27;24.43;94647.91;4902691;29;20036;-67
2022/02/01 05:09:23;;;;;;;2.17;1.00;;;;;;;19.19;24.45;94677.31;4917001;29;20051;-67
2022/02/01 05:11:50;;;;;;;2.72;1.20;;;;;;;19.21;24.47;94691.88;4919962;29;20044;-68
2022/02/01 05:14:24;;;;;;;2.38;1.20;;;;;;;19.21;24.39;94683.16;4918690;29;20039;-67
2022/02/01 05:22:06;;;;;;;2.20;1.10;;;;;;;19.14;24.40;94697.31;4914151;29;20051;-67
2022/02/01 05:24:34;;;;;;;3.08;1.20;;;;;;;19.13;24.35;94697.56;4911332;29;20030;-67
2022/02/01 05:27:01;;;;;;;2.72;1.30;;;;;;;19.14;24.40;94707.06;4926692;29;20024;-67
2022/02/01 05:29:26;;;;;;;3.40;1.10;;;;;;;19.15;24.25;94708.66;4912248;29;20032;-67
2022/02/01 05:31:52;;;;;;;2.25;0.90;;;;;;;19.15;24.34;94713.91;4896773;29;20043;-67
2022/02/01 05:34:20;;;;;;;2.92;1.30;;;;;;;19.07;24.64;94707.22;4895067;29;20031;-67
2022/02/01 05:36:46;;;;;;;2.92;1.13;;;;;;;19.12;24.32;94707.31;4915585;29;20028;-68
2022/02/01 05:39:25;;;;;;;3.25;1.13;;;;;;;19.14;24.54;94715.78;4917150;29;20036;-67
2022/02/01 05:41:52;;;;;;;2.40;0.98;;;;;;;19.11;24.26;94705.72;4912872;29;20019;-67
2022/02/01 05:44:17;;;;;;;3.17;1.40;;;;;;;19.11;24.45;94733.91;4912392;29;20024;-67
2022/02/01 05:46:43;;;;;;;3.33;1.30;;;;;;;19.12;24.48;94719.69;4893967;29;20040;-67
2022/02/01 05:49:08;;;;;;;2.45;1.40;;;;;;;19.13;24.40;94714.19;4891505;29;20043;-67
2022/02/01 05:51:34;;;;;;;3.15;1.20;;;;;;;19.14;24.50;94713.13;4893838;29;20043;-67
2022/02/01 05:54:00;;;;;;;3.20;1.30;;;;;;;19.10;24.38;94730.47;4891452;29;20044;-67
2022/02/01 05:56:26;;;;;;;2.25;1.20;;;;;;;19.11;24.35;94737.34;4894075;29;20032;-67
2022/02/01 05:59:01;;;;;;;3.35;1.20;;;;;;;19.14;24.49;94733.44;4924328;29;20040;-67
2022/02/01 06:01:26;;;;;;;4.47;1.38;;;;;;;19.16;24.39;94746.38;4920608;29;20064;-67
2022/02/01 06:03:51;;;;;;;3.38;1.27;;;;;;;19.18;24.41;94745.06;4907547;29;20028;-67
2022/02/01 06:06:19;;;;;;;2.88;1.20;;;;;;;19.21;24.32;94743.78;4911425;29;20216;-67
2022/02/01 06:08:44;;;;;;;3.55;1.50;;;;;;;19.18;24.50;94752.19;4911378;29;20035;-67
2022/02/01 06:11:10;;;;;;;3.47;1.30;;;;;;;19.17;24.55;94748.75;4893132;29;20024;-67
2022/02/01 06:13:36;;;;;;;4.80;1.40;;;;;;;19.18;24.32;94746.94;4908014;29;20036;-67
2022/02/01 06:16:06;;;;;;;3.65;1.30;;;;;;;19.16;24.47;94741.09;4904722;29;20043;-67
2022/02/01 06:18:31;;;;;;;3.95;1.40;;;;;;;19.19;24.72;94738.78;4914860;29;20121;-67
2022/02/01 06:20:57;;;;;;;3.08;1.40;;;;;;;19.20;24.48;94745.63;4907048;29;20039;-67
2022/02/01 06:23:22;;;;;;;4.38;1.30;;;;;;;19.19;24.37;94757.22;4907779;29;20032;-67
2022/02/01 06:25:49;;;;;;;3.50;1.50;;;;;;;19.22;24.33;94756.72;4893579;29;20029;-67
2022/02/01 06:28:18;;;;;;;4.40;1.95;;;;;;;19.13;24.42;94756.38;4894248;29;20193;-67
2022/02/01 06:30:44;;;;;;;5.83;3.30;;;;;;;19.22;24.53;94761.22;4907401;29;20062;-67
2022/02/01 06:33:29;;;;;;;7.90;4.70;;;;;;;19.24;24.45;94773.09;4908664;29;20286;-68
2022/02/01 06:35:55;;;;;;;6.38;3.80;;;;;;;19.27;24.53;94771.84;4904550;29;20039;-67
2022/02/01 06:38:20;;;;;;;5.03;3.30;;;;;;;19.25;24.33;94768.66;4910036;29;20043;-67
2022/02/01 06:40:47;;;;;;;4.20;2.70;;;;;;;19.22;24.47;94777.03;4909096;29;20040;-67
2022/02/01 06:43:15;;;;;;;4.25;2.50;;;;;;;19.19;24.56;94761.69;4910419;29;20099;-67
2022/02/01 06:45:41;;;;;;;3.95;2.10;;;;;;;19.20;24.55;94765.94;4900395;29;20039;-67
2022/02/01 06:48:06;;;;;;;5.22;2.00;;;;;;;19.21;24.56;94775.41;4902285;29;20054;-67
2022/02/01 06:50:33;;;;;;;4.45;2.17;;;;;;;19.18;24.41;94775.94;4918017;29;20051;-67
2022/02/01 06:52:59;;;;;;;2.20;1.67;;;;;;;19.16;24.10;94770.88;4908898;29;20175;-68
2022/02/01 06:58:03;;;;;;;3.95;1.80;;;;;;;19.17;24.51;94796.19;4913592;29;20483;-67
2022/02/01 07:00:29;;;;;;;2.67;1.27;;;;;;;19.17;24.48;94790.13;4895755;29;20032;-67
2022/02/01 07:02:55;;;;;;;2.15;1.45;;;;;;;19.18;24.56;94786.47;4911439;29;20123;-67
2022/02/01 07:05:20;;;;;;;2.47;1.40;;;;;;;19.15;24.65;94779.81;4923080;28;20050;-68
2022/02/01 07:07:46;;;;;;;3.08;1.30;;;;;;;19.17;24.48;94788.28;4909836;29;20075;-67
2022/02/01 07:10:11;;;;;;;2.58;1.17;;;;;;;19.20;24.67;94795.72;4890082;29;20024;-67
2022/02/01 07:12:36;;;;;;;1.98;1.40;;;;;;;19.21;24.52;94791.25;4908003;29;20092;-67
2022/02/01 07:15:02;;;;;;;2.63;1.23;;;;;;;19.20;24.65;94794.94;4904067;29;20033;-67
2022/02/01 07:17:28;;;;;;;2.63;1.25;;;;;;;19.14;24.74;94794.84;4898067;29;20039;-67
2022/02/01 07:19:53;;;;;;;2.10;1.30;;;;;;;19.13;24.82;94789.81;4911362;29;20042;-67
2022/02/01 07:22:19;;;;;;;2.30;1.10;;;;;;;19.12;24.84;94794.28;4904081;29;20092;-67
2022/02/01 07:25:11;;;;;;;2.15;1.10;;;;;;;19.07;24.71;94807.38;4890978;29;20024;-67
2022/02/01 07:27:42;;;;;;;2.22;0.93;;;;;;;19.13;24.61;94803.00;4909799;29;20040;-67
2022/02/01 07:30:08;;;;;;;;;;;;;;;19.59;24.04;94816.03;4911987;29;20052;-67
2022/02/01 07:32:36;;;;;;;2.22;0.90;;;;;;;19.13;24.66;94830.19;4916104;29;20036;-67
2022/02/01 07:35:03;;;;;;;1.52;0.90;;;;;;;19.10;24.60;94822.75;4914117;29;20071;-68
2022/02/01 07:37:37;;;;;;;1.17;0.80;;;;;;;19.02;24.95;94832.88;4893761;29;20032;-67
2022/02/01 07:40:04;;;;;;;1.13;0.95;;;;;;;19.02;24.75;94843.41;4892944;29;20036;-67
2022/02/01 07:42:30;;;;;;;1.50;1.00;;;;;;;19.03;25.00;94847.66;4888651;29;20024;-68
2022/02/01 07:45:01;;;;;;;1.30;1.00;;;;;;;19.03;24.86;94848.44;4908568;29;20405;-67
2022/02/01 07:47:26;;;;;;;1.50;1.08;;;;;;;19.02;24.95;94846.88;4897085;29;20035;-67
2022/02/01 07:49:51;;;;;;;3.15;1.20;;;;;;;19.01;24.96;94842.63;4906374;29;20036;-67
2022/02/01 07:52:17;;;;;;;1.45;1.20;;;;;;;19.03;24.80;94847.66;4909251;29;20035;-67
2022/02/01 07:54:43;;;;;;;2.25;1.08;;;;;;;19.04;24.80;94855.34;4901613;29;20123;-67
2022/02/01 07:57:17;;;;;;;1.80;1.00;;;;;;;19.00;25.00;94835.78;4900394;29;20040;-67
2022/02/01 07:59:42;;;;;;;2.38;1.02;;;;;;;19.04;24.80;94838.69;4911351;29;20032;-68
2022/02/01 08:02:18;;;;;;;1.33;1.10;;;;;;;19.06;24.89;94841.91;4898558;29;20036;-68
2022/02/01 08:04:44;;;;;;;1.55;0.90;;;;;;;19.01;24.76;94855.00;4913744;29;20028;-67
2022/02/01 08:07:10;;;;;;;2.03;1.00;;;;;;;19.00;24.84;94863.94;4915603;29;20115;-67
2022/02/01 08:09:39;;;;;;;1.80;1.10;;;;;;;19.00;24.91;94842.84;4896718;29;20036;-67
2022/02/01 08:16:02;;;;;;;2.53;0.90;;;;;;;18.98;24.86;94858.09;4908193;29;20035;-67
2022/02/01 08:17:42;;;;;;;1.98;1.00;;;;;;;19.00;24.67;94842.84;4925463;29;20040;-68
2022/02/01 08:20:33;;;;;;;2.38;1.20;;;;;;;18.95;24.82;94836.47;4900048;29;20032;-67
2022/02/01 08:23:02;;;;;;;2.33;1.10;;;;;;;18.97;25.08;94832.81;4899134;29;20044;-67
2022/02/01 08:25:28;;;;;;;3.47;1.02;;;;;;;18.95;24.78;94839.09;4904520;29;20044;-67
2022/02/01 08:27:55;;;;;;;2.20;1.15;;;;;;;18.88;24.96;94835.03;4899886;29;20077;-68
2022/02/01 08:30:21;;;;;;;3.05;1.10;;;;;;;18.87;25.00;94842.16;4898504;29;20039;-67
2022/02/01 08:32:55;;;;;;;2.85;1.10;;;;;;;18.85;25.00;94841.59;4906276;29;20415;-67
2022/02/01 08:35:20;;;;;;;2.67;1.10;;;;;;;18.87;24.82;94836.09;4919270;29;20147;-67
2022/02/01 08:37:46;;;;;;;1.50;1.00;;;;;;;18.88;24.77;94845.56;4882595;29;20033;-68
2022/02/01 08:40:16;;;;;;;2.97;1.08;;;;;;;18.84;24.92;94834.69;4897692;29;20052;-67
2022/02/01 08:42:42;;;;;;;1.63;0.90;;;;;;;18.90;24.85;94844.28;4880916;29;20032;-67
2022/02/01 08:45:09;;;;;;;2.17;1.00;;;;;;;18.85;24.88;94846.03;4897675;29;20047;-67
2022/02/01 08:47:34;;;;;;;1.55;0.90;;;;;;;18.86;24.78;94837.09;4893692;29;20040;-67
2022/02/01 08:50:00;;;;;;;1.75;0.93;;;;;;;18.88;24.78;94845.56;4899885;29;20051;-68
2022/02/01 08:52:49;;;;;;;2.50;1.00;;;;;;;18.90;24.88;94851.41;4916921;29;20036;-67
2022/02/01 08:55:21;;;;;;;1.58;1.05;;;;;;;18.95;24.64;94848.84;4903192;29;20036;-67
2022/02/01 08:57:47;;;;;;;2.45;1.00;;;;;;;18.92;24.66;94850.13;4909427;29;20123;-67
2022/02/01 09:00:15;;;;;;;1.98;0.80;;;;;;;18.92;24.77;94851.97;4911303;29;20044;-67
2022/02/01 09:02:47;;;;;;;1.20;1.05;;;;;;;18.88;24.77;94835.81;4893786;29;20032;-68
2022/02/01 09:05:12;;;;;;;2.80;1.05;;;;;;;18.89;24.61;94841.91;4910374;29;20032;-67
2022/02/01 09:07:38;;;;;;;1.98;0.98;;;;;;;18.93;24.68;94821.94;4896122;29;20035;-67
2022/02/01 09:10:04;;;;;;;2.35;1.02;;;;;;;18.92;24.49;94830.88;4896138;29;20055;-67
2022/02/01 09:12:29;;;;;;;2.95;1.10;;;;;;;18.91;24.53;94835.34;4894693;29;20032;-67
2022/02/01 09:14:55;;;;;;;2.28;1.00;;;;;;;18.90;24.58;94838.22;4895103;29;20035;-67
2022/02/01 09:17:20;;;;;;;3.85;1.20;;;;;;;18.88;24.58;94845.56;4894605;29;20036;-67
2022/02/01 09:19:48;;;;;;;3.55;1.10;;;;;;;18.89;24.48;94850.59;4897073;29;20032;-68
2022/02/01 09:22:15;;;;;;;2.53;0.98;;;;;;;18.89;24.36;94852.44;4910956;29;20027;-67
2022/02/01 09:24:41;;;;;;;1.92;1.10;;;;;;;18.88;24.36;94840.31;4896498;29;20035;-67
2022/02/01 09:27:07;;;;;;;4.22;1.30;;;;;;;18.88;24.36;94853.47;4895593;29;20075;-67
2022/02/01 09:29:33;;;;;;;2.10;1.10;;;;;;;18.85;24.46;94860.03;4908744;29;20092;-67
2022/02/01 09:31:59;;;;;;;2.00;1.10;;;;;;;18.82;24.54;94868.41;4900611;29;20031;-68
2022/02/01 09:34:25;;;;;;;3.58;1.27;;;;;;;18.83;24.48;94875.28;4914056;29;20044;-68
2022/02/01 09:36:51;;;;;;;3.25;1.15;;;;;;;18.85;24.46;94877.66;4892135;29;20112;-67
2022/02/01 09:39:17;;;;;;;2.53;1.27;;;;;;;18.84;24.28;94890.03;4907793;29;20052;-67
2022/02/01 09:41:47;;;;;;;3.38;1.20;;;;;;;18.78;24.49;94877.00;4896565;29;20032;-67
2022/02/01 09:44:13;;;;;;;;;;;;;;;19.36;23.92;94878.47;4907848;29;20106;-68
2022/02/01 09:46:49;;;;;;;2.80;1.10;;;;;;;18.98;24.21;94864.16;4922366;29;19969;-67
2022/02/01 09:49:17;;;;;;;3.55;1.52;;;;;;;18.88;24.42;94869.28;4905016;29;20103;-67
2022/02/01 09:51:43;;;;;;;2.95;1.30;;;;;;;18.88;24.27;94869.28;4912877;29;20040;-67
2022/02/01 09:54:09;;;;;;;2.90;1.13;;;;;;;18.87;24.42;94892.22;4908435;29;20031;-67
2022/02/01 09:56:34;;;;;;;1.95;1.13;;;;;;;18.90;24.26;94890.94;4895395;29;20039;-67
2022/02/01 09:59:00;;;;;;;2.63;1.02;;;;;;;18.93;24.11;94887.81;4894132;29;20040;-67
2022/02/01 10:01:29;;;;;;;2.25;1.30;;;;;;;18.86;24.33;94885.31;4893978;29;20035;-67
2022/02/01 10:04:04;;;;;;;1.73;0.98;;;;;;;18.87;24.31;94886.16;4895539;29;20028;-67
2022/02/01 10:06:36;;;;;;;2.88;1.52;;;;;;;18.85;24.35;94880.28;4909480;29;20032;-67
2022/02/01 10:09:22;;;;;;;2.53;1.20;;;;;;;18.88;24.22;94877.19;4897214;29;20119;-68
2022/02/01 10:11:49;;;;;;;2.45;1.10;;;;;;;18.89;24.07;94889.34;4917186;29;20062;-67
2022/02/01 10:14:28;;;;;;;2.75;1.40;;;;;;;18.86;24.33;94879.25;4911926;29;20063;-67
2022/02/01 10:16:59;;;;;;;3.38;1.30;;;;;;;18.85;24.23;94869.75;4896170;29;20038;-67
2022/02/01 10:19:24;;;;;;;3.03;1.30;;;;;;;18.83;24.29;94882.38;4910878;29;20035;-67
2022/02/01 10:21:57;;;;;;;3.92;1.42;;;;;;;18.81;24.30;94879.16;4908777;29;20039;-67
2022/02/01 10:24:41;;;;;;;3.83;1.30;;;;;;;18.86;24.27;94876.63;4908584;29;20036;-67
2022/02/01 10:27:18;;;;;;;2.63;1.17;;;;;;;18.81;24.42;94872.09;4904169;29;20140;-67
2022/02/01 10:30:07;;;;;;;3.42;1.13;;;;;;;18.82;24.22;94868.41;4910513;29;20104;-68
2022/02/01 10:32:46;;;;;;;3.28;1.10;;;;;;;18.80;24.14;94865.19;4909977;29;20051;-67
2022/02/01 10:38:04;;;;;;;3.60;1.25;;;;;;;18.81;24.47;94860.72;4895988;29;20092;-67
2022/02/01 10:40:43;;;;;;;4.03;1.20;;;;;;;18.86;24.33;94866.88;4893514;29;20035;-67
2022/02/01 10:43:22;;;;;;;2.40;1.25;;;;;;;18.90;24.43;94870.63;4910954;29;20036;-67
2022/02/01 10:45:49;;;;;;;4.07;1.27;;;;;;;18.82;24.11;94864.97;4910796;29;20098;-67
2022/02/01 10:48:25;;;;;;;3.13;1.20;;;;;;;18.81;24.45;94855.47;4894927;29;20047;-68
2022/02/01 10:51:03;;;;;;;2.55;1.10;;;;;;;18.83;24.41;94864.75;4912664;29;20036;-67
2022/02/01 10:53:28;;;;;;;3.13;1.10;;;;;;;18.86;24.23;94881.91;4909287;29;20039;-67
2022/02/01 10:55:54;;;;;;;2.33;1.10;;;;;;;18.87;24.16;94886.94;4907655;29;20036;-67
2022/02/01 10:58:19;;;;;;;4.43;1.17;;;;;;;18.87;24.26;94875.59;4895112;29;20036;-68
2022/02/01 11:00:47;;;;;;;1.73;1.00;;;;;;;18.83;24.27;94877.09;4895879;29;20090;-67
2022/02/01 11:03:18;;;;;;;3.33;1.10;;;;;;;18.84;24.25;94870.81;4915469;29;20032;-67
2022/02/01 11:05:46;;;;;;;;;;;;;;;19.42;23.43;94882.81;4908644;29;20043;-67
2022/02/01 11:08:16;;;;;;;3.38;1.30;;;;;;;18.92;23.76;94868.59;4923481;29;19919;-67
2022/02/01 11:10:49;;;;;;;2.70;1.20;;;;;;;18.89;23.81;94868.25;4901133;29;20032;-67
2022/02/01 11:13:14;;;;;;;2.72;1.00;;;;;;;18.86;23.79;94872.16;4912313;29;20036;-67
2022/02/01 11:15:40;;;;;;;2.33;1.05;;;;;;;18.86;23.74;94868.72;4895911;29;20056;-67
2022/02/01 11:18:15;;;;;;;2.38;0.93;;;;;;;18.86;23.72;94868.72;4913965;29;20033;-68
2022/02/01 11:20:44;;;;;;;2.28;1.10;;;;;;;18.87;23.62;94865.06;4901049;29;20083;-68
2022/02/01 11:23:21;;;;;;;2.15;1.00;;;;;;;18.79;23.71;94874.13;4909336;29;20032;-67
2022/02/01 11:25:50;;;;;;;2.78;1.10;;;;;;;18.84;23.63;94876.06;4903241;29;20060;-67
2022/02/01 11:28:49;;;;;;;3.13;1.00;;;;;;;18.92;23.76;94888.84;4911430;29;20024;-66
2022/02/01 11:31:17;;;;;;;3.25;1.00;;;;;;;18.91;23.31;94876.72;4925375;29;20038;-66
2022/02/01 11:33:43;;;;;;;3.42;1.23;;;;;;;18.88;23.22;94875.34;4913092;29;20036;-67
2022/02/01 11:36:10;;;;;;;2.72;1.20;;;;;;;18.87;23.50;94870.34;4915901;29;20036;-67
2022/02/01 11:38:36;;;;;;;3.13;1.00;;;;;;;18.90;23.38;94856.66;4897210;29;20131;-66
2022/02/01 11:41:03;;;;;;;1.50;0.80;;;;;;;18.87;25.55;94846.63;4907702;29;20032;-67
2022/02/01 11:43:29;;;;;;;3.25;0.90;;;;;;;18.90;24.89;94852.19;4919472;29;20048;-67
2022/02/01 11:46:04;;;;;;;2.63;1.10;;;;;;;18.87;24.68;94855.31;4895563;29;20028;-68
2022/02/01 11:48:31;;;;;;;3.85;1.00;;;;;;;18.92;24.49;94857.22;4898908;29;20035;-67
2022/02/01 11:51:04;;;;;;;2.70;1.10;;;;;;;18.91;24.27;94845.09;4916871;29;20032;-68
2022/02/01 11:53:35;;;;;;;2.95;1.27;;;;;;;18.96;23.89;94839.91;4919166;29;20036;-67
2022/02/01 11:56:02;;;;;;;3.25;0.98;;;;;;;18.96;23.98;94832.00;4913931;29;20060;-67
2022/02/01 11:58:41;;;;;;;3.25;1.10;;;;;;;18.95;23.86;94818.03;4911313;29;20027;-67
2022/02/01 12:01:30;;;;;;;2.50;1.00;;;;;;;18.96;23.88;94810.91;4912143;29;20032;-67
2022/02/01 12:04:10;;;;;;;2.25;1.00;;;;;;;19.03;23.65;94790.47;4918494;29;20093;-67
2022/02/01 12:06:44;;;;;;;3.20;1.10;;;;;;;19.01;23.68;94797.81;4928591;29;20036;-67
2022/02/01 12:09:20;;;;;;;3.45;1.10;;;;;;;18.97;23.65;94788.81;4922125;28;20145;-67
2022/02/01 12:11:45;;;;;;;2.67;1.00;;;;;;;19.00;23.40;94777.78;4902268;29;20091;-67
2022/02/01 12:14:11;;;;;;;2.90;1.00;;;;;;;18.98;23.49;94761.38;4910523;29;20024;-67
2022/02/01 12:16:36;;;;;;;3.72;1.00;;;;;;;18.99;23.56;94757.72;4896748;29;20114;-67
2022/02/01 12:19:07;;;;;;;2.33;1.00;;;;;;;18.96;23.48;94758.19;4895469;29;20027;-67
2022/02/01 12:21:57;;;;;;;2.22;1.00;;;;;;;19.00;23.48;94754.06;4910837;29;20044;-68
2022/02/01 12:24:24;;;;;;;3.23;1.03;;;;;;;19.02;23.51;94749.34;4911854;29;20040;-67
2022/02/01 12:26:50;;;;;;;2.28;0.90;;;;;;;19.02;23.37;94744.06;4893628;29;20036;-67
2022/02/01 12:29:21;;;;;;;1.75;0.82;;;;;;;18.97;23.44;94736.09;4908458;29;20023;-67
2022/02/01 12:31:48;;;;;;;3.78;1.20;;;;;;;19.00;23.30;94734.78;4928811;29;20043;-67
2022/02/01 12:34:16;;;;;;;3.28;0.90;;;;;;;18.97;23.40;94728.19;4911563;29;20025;-67
2022/02/01 12:36:44;;;;;;;3.33;1.10;;;;;;;18.96;23.27;94718.66;4895653;29;20147;-67
2022/02/01 12:39:31;;;;;;;2.67;0.90;;;;;;;18.97;23.16;94722.91;4891520;29;20035;-67
2022/02/01 12:42:11;;;;;;;2.55;1.08;;;;;;;19.02;23.30;94709.81;4929871;29;20039;-67
2022/02/01 12:47:04;;;;;;;2.17;1.02;;;;;;;19.01;23.20;94715.31;4898166;29;20071;-67
2022/02/01 12:50:05;;;;;;;2.75;1.00;;;;;;;19.04;23.02;94712.19;4908389;29;20035;-67
2022/02/01 12:52:32;;;;;;;1.52;1.00;;;;;;;19.05;23.14;94706.69;4914548;29;20103;-67
2022/02/01 12:55:04;;;;;;;2.80;0.98;;;;;;;19.02;23.08;94706.34;4916811;29;20043;-67
2022/02/01 12:57:29;;;;;;;3.35;1.00;;;;;;;19.01;23.16;94702.94;4919145;29;20039;-67
2022/02/01 13:00:00;;;;;;;3.20;1.00;;;;;;;18.98;23.23;94695.50;4913122;29;20079;-67
2022/02/01 13:02:27;;;;;;;1.58;0.88;;;;;;;19.00;23.05;94695.25;4934359;29;20039;-67
2022/02/01 13:04:57;;;;;;;2.25;0.95;;;;;;;18.98;23.13;94689.44;4926076;29;20087;-67
2022/02/01 13:07:48;;;;;;;2.88;0.98;;;;;;;19.00;23.11;94672.38;4923451;29;20070;-67
2022/02/01 13:13:20;;;;;;;2.70;0.88;;;;;;;18.98;23.10;94663.88;4919104;29;20057;-67
2022/02/01 13:15:52;;;;;;;2.75;0.90;;;;;;;19.03;23.16;94655.25;4915559;29;20066;-67